sensor_id;sensor_type;location;lat;lon;timestamp;temperature;humidity
25914;DHT22;13718;50.922;5.346;2023-05-28T00:00:32;15.40;92.20
25914;DHT22;13718;50.922;5.346;2023-05-28T00:02:58;15.40;92.30
25914;DHT22;13718;50.922;5.346;2023-05-28T00:05:25;15.40;92.60
25914;DHT22;13718;50.922;5.346;2023-05-28T00:07:50;15.30;92.60
25914;DHT22;13718;50.922;5.346;2023-05-28T00:10:16;15.30;92.90
25914;DHT22;13718;50.922;5.346;2023-05-28T00:12:41;15.30;92.90
25914;DHT22;13718;50.922;5.346;2023-05-28T00:15:07;15.30;93.00
25914;DHT22;13718;50.922;5.346;2023-05-28T00:17:33;15.30;93.00
25914;DHT22;13718;50.922;5.346;2023-05-28T00:19:59;15.20;93.20
25914;DHT22;13718;50.922;5.346;2023-05-28T00:22:24;15.20;93.40
25914;DHT22;13718;50.922;5.346;2023-05-28T00:24:50;15.10;93.70
25914;DHT22;13718;50.922;5.346;2023-05-28T00:27:16;15.00;93.90
25914;DHT22;13718;50.922;5.346;2023-05-28T00:29:42;14.90;94.20
25914;DHT22;13718;50.922;5.346;2023-05-28T00:32:09;14.70;94.80
25914;DHT22;13718;50.922;5.346;2023-05-28T00:34:34;14.60;94.80
25914;DHT22;13718;50.922;5.346;2023-05-28T00:37:00;14.70;95.00
25914;DHT22;13718;50.922;5.346;2023-05-28T00:39:26;14.70;95.20
25914;DHT22;13718;50.922;5.346;2023-05-28T00:42:04;14.60;95.30
25914;DHT22;13718;50.922;5.346;2023-05-28T00:44:35;14.60;95.80
25914;DHT22;13718;50.922;5.346;2023-05-28T00:47:02;14.50;96.20
25914;DHT22;13718;50.922;5.346;2023-05-28T00:49:28;14.50;96.30
25914;DHT22;13718;50.922;5.346;2023-05-28T00:51:54;14.50;96.50
25914;DHT22;13718;50.922;5.346;2023-05-28T00:54:23;14.40;96.70
25914;DHT22;13718;50.922;5.346;2023-05-28T00:56:48;14.40;97.10
25914;DHT22;13718;50.922;5.346;2023-05-28T00:59:16;14.30;97.40
25914;DHT22;13718;50.922;5.346;2023-05-28T01:01:42;14.20;97.80
25914;DHT22;13718;50.922;5.346;2023-05-28T01:04:08;14.00;98.20
25914;DHT22;13718;50.922;5.346;2023-05-28T01:06:34;13.90;98.80
25914;DHT22;13718;50.922;5.346;2023-05-28T01:09:04;14.00;99.10
25914;DHT22;13718;50.922;5.346;2023-05-28T01:11:30;14.10;99.60
25914;DHT22;13718;50.922;5.346;2023-05-28T01:13:57;14.10;99.80
25914;DHT22;13718;50.922;5.346;2023-05-28T01:16:23;14.10;99.90
25914;DHT22;13718;50.922;5.346;2023-05-28T01:18:48;14.10;99.90
25914;DHT22;13718;50.922;5.346;2023-05-28T01:21:15;14.00;99.90
25914;DHT22;13718;50.922;5.346;2023-05-28T01:23:43;14.00;99.90
25914;DHT22;13718;50.922;5.346;2023-05-28T01:26:13;13.90;99.90
25914;DHT22;13718;50.922;5.346;2023-05-28T01:28:39;13.90;99.90
25914;DHT22;13718;50.922;5.346;2023-05-28T01:31:10;13.80;99.90
25914;DHT22;13718;50.922;5.346;2023-05-28T01:33:36;13.70;99.90
25914;DHT22;13718;50.922;5.346;2023-05-28T01:36:03;13.60;99.90
25914;DHT22;13718;50.922;5.346;2023-05-28T01:38:31;13.50;99.90
25914;DHT22;13718;50.922;5.346;2023-05-28T01:40:59;13.30;99.90
25914;DHT22;13718;50.922;5.346;2023-05-28T01:43:25;13.20;99.90
25914;DHT22;13718;50.922;5.346;2023-05-28T01:45:51;13.30;99.90
25914;DHT22;13718;50.922;5.346;2023-05-28T01:48:18;13.40;99.90
25914;DHT22;13718;50.922;5.346;2023-05-28T01:50:44;13.40;99.90
25914;DHT22;13718;50.922;5.346;2023-05-28T01:53:09;13.30;99.90
25914;DHT22;13718;50.922;5.346;2023-05-28T01:55:35;13.10;99.90
25914;DHT22;13718;50.922;5.346;2023-05-28T01:58:00;13.00;99.90
25914;DHT22;13718;50.922;5.346;2023-05-28T02:00:26;12.90;99.90
25914;DHT22;13718;50.922;5.346;2023-05-28T02:02:52;12.90;99.90
25914;DHT22;13718;50.922;5.346;2023-05-28T02:05:18;13.00;99.90
25914;DHT22;13718;50.922;5.346;2023-05-28T02:07:43;13.00;99.90
25914;DHT22;13718;50.922;5.346;2023-05-28T02:10:09;13.10;99.90
25914;DHT22;13718;50.922;5.346;2023-05-28T02:12:35;13.20;99.90
25914;DHT22;13718;50.922;5.346;2023-05-28T02:15:00;13.10;99.90
25914;DHT22;13718;50.922;5.346;2023-05-28T02:17:26;12.90;99.90
25914;DHT22;13718;50.922;5.346;2023-05-28T02:19:52;12.80;99.90
25914;DHT22;13718;50.922;5.346;2023-05-28T02:22:18;12.70;99.90
25914;DHT22;13718;50.922;5.346;2023-05-28T02:24:44;12.70;99.90
25914;DHT22;13718;50.922;5.346;2023-05-28T02:27:11;12.70;99.90
25914;DHT22;13718;50.922;5.346;2023-05-28T02:29:37;12.70;99.90
25914;DHT22;13718;50.922;5.346;2023-05-28T02:32:03;12.80;99.90
25914;DHT22;13718;50.922;5.346;2023-05-28T02:34:29;12.80;99.90
25914;DHT22;13718;50.922;5.346;2023-05-28T02:36:55;12.90;99.90
25914;DHT22;13718;50.922;5.346;2023-05-28T02:39:25;13.00;99.90
25914;DHT22;13718;50.922;5.346;2023-05-28T02:41:51;13.00;99.90
25914;DHT22;13718;50.922;5.346;2023-05-28T02:44:17;13.10;99.90
25914;DHT22;13718;50.922;5.346;2023-05-28T02:46:42;13.10;99.90
25914;DHT22;13718;50.922;5.346;2023-05-28T02:49:08;13.10;99.90
25914;DHT22;13718;50.922;5.346;2023-05-28T02:51:33;13.10;99.90
25914;DHT22;13718;50.922;5.346;2023-05-28T02:54:00;13.20;99.90
25914;DHT22;13718;50.922;5.346;2023-05-28T02:56:25;13.30;99.90
25914;DHT22;13718;50.922;5.346;2023-05-28T02:58:51;13.20;99.90
25914;DHT22;13718;50.922;5.346;2023-05-28T03:01:18;13.20;99.90
25914;DHT22;13718;50.922;5.346;2023-05-28T03:03:44;13.10;99.90
25914;DHT22;13718;50.922;5.346;2023-05-28T03:06:09;13.10;99.90
25914;DHT22;13718;50.922;5.346;2023-05-28T03:08:35;13.10;99.90
25914;DHT22;13718;50.922;5.346;2023-05-28T03:11:00;13.00;99.90
25914;DHT22;13718;50.922;5.346;2023-05-28T03:13:26;13.10;99.90
25914;DHT22;13718;50.922;5.346;2023-05-28T03:15:51;13.10;99.90
25914;DHT22;13718;50.922;5.346;2023-05-28T03:18:17;13.20;99.90
25914;DHT22;13718;50.922;5.346;2023-05-28T03:20:42;13.30;99.90
25914;DHT22;13718;50.922;5.346;2023-05-28T03:23:08;13.20;99.90
25914;DHT22;13718;50.922;5.346;2023-05-28T03:25:34;13.20;99.90
25914;DHT22;13718;50.922;5.346;2023-05-28T03:27:59;13.20;99.90
25914;DHT22;13718;50.922;5.346;2023-05-28T03:30:25;13.10;99.90
25914;DHT22;13718;50.922;5.346;2023-05-28T03:32:51;13.00;99.90
25914;DHT22;13718;50.922;5.346;2023-05-28T03:35:17;12.90;99.90
25914;DHT22;13718;50.922;5.346;2023-05-28T03:37:43;12.90;99.90
25914;DHT22;13718;50.922;5.346;2023-05-28T03:40:08;12.90;99.90
25914;DHT22;13718;50.922;5.346;2023-05-28T03:42:36;12.90;99.90
25914;DHT22;13718;50.922;5.346;2023-05-28T03:45:01;12.90;99.90
25914;DHT22;13718;50.922;5.346;2023-05-28T03:47:27;12.80;99.90
25914;DHT22;13718;50.922;5.346;2023-05-28T03:49:56;12.80;99.90
25914;DHT22;13718;50.922;5.346;2023-05-28T03:52:21;12.90;99.90
25914;DHT22;13718;50.922;5.346;2023-05-28T03:54:47;12.90;99.90
25914;DHT22;13718;50.922;5.346;2023-05-28T03:57:13;12.90;99.90
25914;DHT22;13718;50.922;5.346;2023-05-28T03:59:38;12.80;99.90
25914;DHT22;13718;50.922;5.346;2023-05-28T04:02:04;12.80;99.90
25914;DHT22;13718;50.922;5.346;2023-05-28T04:04:29;12.80;99.90
25914;DHT22;13718;50.922;5.346;2023-05-28T04:06:55;12.80;99.90
25914;DHT22;13718;50.922;5.346;2023-05-28T04:09:20;12.90;99.90
25914;DHT22;13718;50.922;5.346;2023-05-28T04:11:46;12.90;99.90
25914;DHT22;13718;50.922;5.346;2023-05-28T04:14:12;13.00;99.90
25914;DHT22;13718;50.922;5.346;2023-05-28T04:16:38;13.00;99.90
25914;DHT22;13718;50.922;5.346;2023-05-28T04:19:03;13.00;99.90
25914;DHT22;13718;50.922;5.346;2023-05-28T04:21:30;13.00;99.90
25914;DHT22;13718;50.922;5.346;2023-05-28T04:23:55;13.00;99.90
25914;DHT22;13718;50.922;5.346;2023-05-28T04:26:21;13.10;99.90
25914;DHT22;13718;50.922;5.346;2023-05-28T04:28:48;13.10;99.90
25914;DHT22;13718;50.922;5.346;2023-05-28T04:31:14;13.20;99.90
25914;DHT22;13718;50.922;5.346;2023-05-28T04:33:39;13.20;99.90
25914;DHT22;13718;50.922;5.346;2023-05-28T04:36:05;13.30;99.90
25914;DHT22;13718;50.922;5.346;2023-05-28T04:38:34;13.40;99.90
25914;DHT22;13718;50.922;5.346;2023-05-28T04:40:59;13.50;99.90
25914;DHT22;13718;50.922;5.346;2023-05-28T04:43:31;13.50;99.90
25914;DHT22;13718;50.922;5.346;2023-05-28T04:45:58;13.50;99.90
25914;DHT22;13718;50.922;5.346;2023-05-28T04:48:24;13.60;99.90
25914;DHT22;13718;50.922;5.346;2023-05-28T04:50:51;13.60;99.90
25914;DHT22;13718;50.922;5.346;2023-05-28T04:53:17;13.60;99.90
25914;DHT22;13718;50.922;5.346;2023-05-28T04:55:43;13.70;99.90
25914;DHT22;13718;50.922;5.346;2023-05-28T04:58:09;13.80;99.90
25914;DHT22;13718;50.922;5.346;2023-05-28T05:00:35;13.90;99.90
25914;DHT22;13718;50.922;5.346;2023-05-28T05:03:01;14.00;99.90
25914;DHT22;13718;50.922;5.346;2023-05-28T05:05:27;14.10;99.90
25914;DHT22;13718;50.922;5.346;2023-05-28T05:07:52;14.20;99.90
25914;DHT22;13718;50.922;5.346;2023-05-28T05:10:18;14.40;99.90
25914;DHT22;13718;50.922;5.346;2023-05-28T05:12:44;14.50;99.90
25914;DHT22;13718;50.922;5.346;2023-05-28T05:15:10;14.60;99.90
25914;DHT22;13718;50.922;5.346;2023-05-28T05:17:36;14.60;99.90
25914;DHT22;13718;50.922;5.346;2023-05-28T05:20:03;14.70;99.90
25914;DHT22;13718;50.922;5.346;2023-05-28T05:22:30;14.80;99.90
25914;DHT22;13718;50.922;5.346;2023-05-28T05:24:56;15.10;99.90
25914;DHT22;13718;50.922;5.346;2023-05-28T05:27:21;15.50;99.90
25914;DHT22;13718;50.922;5.346;2023-05-28T05:29:47;16.60;99.90
25914;DHT22;13718;50.922;5.346;2023-05-28T05:32:12;17.90;99.90
25914;DHT22;13718;50.922;5.346;2023-05-28T05:34:38;19.40;99.90
25914;DHT22;13718;50.922;5.346;2023-05-28T05:37:04;20.90;98.30
25914;DHT22;13718;50.922;5.346;2023-05-28T05:39:29;22.10;94.90
25914;DHT22;13718;50.922;5.346;2023-05-28T05:41:55;23.20;92.40
25914;DHT22;13718;50.922;5.346;2023-05-28T05:44:21;24.10;90.20
25914;DHT22;13718;50.922;5.346;2023-05-28T05:46:46;24.90;86.50
25914;DHT22;13718;50.922;5.346;2023-05-28T05:49:13;25.80;83.90
25914;DHT22;13718;50.922;5.346;2023-05-28T05:51:38;26.50;79.80
25914;DHT22;13718;50.922;5.346;2023-05-28T05:54:04;27.30;76.20
25914;DHT22;13718;50.922;5.346;2023-05-28T05:56:30;28.10;73.40
25914;DHT22;13718;50.922;5.346;2023-05-28T05:58:58;28.70;70.90
25914;DHT22;13718;50.922;5.346;2023-05-28T06:01:24;29.10;68.30
25914;DHT22;13718;50.922;5.346;2023-05-28T06:03:49;29.60;66.50
25914;DHT22;13718;50.922;5.346;2023-05-28T06:06:15;30.00;64.20
25914;DHT22;13718;50.922;5.346;2023-05-28T06:08:41;30.00;62.30
25914;DHT22;13718;50.922;5.346;2023-05-28T06:11:07;29.90;62.10
25914;DHT22;13718;50.922;5.346;2023-05-28T06:13:33;29.50;62.20
25914;DHT22;13718;50.922;5.346;2023-05-28T06:16:01;29.50;62.70
25914;DHT22;13718;50.922;5.346;2023-05-28T06:18:27;29.50;63.20
25914;DHT22;13718;50.922;5.346;2023-05-28T06:20:52;29.80;62.50
25914;DHT22;13718;50.922;5.346;2023-05-28T06:23:18;30.30;61.50
25914;DHT22;13718;50.922;5.346;2023-05-28T06:25:44;31.00;60.00
25914;DHT22;13718;50.922;5.346;2023-05-28T06:28:10;31.60;59.40
25914;DHT22;13718;50.922;5.346;2023-05-28T06:30:36;32.00;58.20
25914;DHT22;13718;50.922;5.346;2023-05-28T06:33:02;32.30;56.60
25914;DHT22;13718;50.922;5.346;2023-05-28T06:35:27;32.60;56.70
25914;DHT22;13718;50.922;5.346;2023-05-28T06:37:53;32.90;56.20
25914;DHT22;13718;50.922;5.346;2023-05-28T06:40:19;33.30;54.80
25914;DHT22;13718;50.922;5.346;2023-05-28T06:42:44;33.60;54.40
25914;DHT22;13718;50.922;5.346;2023-05-28T06:45:10;34.00;53.70
25914;DHT22;13718;50.922;5.346;2023-05-28T06:47:36;34.10;53.30
25914;DHT22;13718;50.922;5.346;2023-05-28T06:50:02;34.40;52.90
25914;DHT22;13718;50.922;5.346;2023-05-28T06:52:28;34.60;52.00
25914;DHT22;13718;50.922;5.346;2023-05-28T06:54:53;35.00;51.80
25914;DHT22;13718;50.922;5.346;2023-05-28T06:57:20;35.20;50.90
25914;DHT22;13718;50.922;5.346;2023-05-28T06:59:46;35.20;50.20
25914;DHT22;13718;50.922;5.346;2023-05-28T07:02:12;35.30;50.10
25914;DHT22;13718;50.922;5.346;2023-05-28T07:04:37;35.40;50.00
25914;DHT22;13718;50.922;5.346;2023-05-28T07:07:04;35.60;49.70
25914;DHT22;13718;50.922;5.346;2023-05-28T07:09:30;35.80;49.20
25914;DHT22;13718;50.922;5.346;2023-05-28T07:11:55;36.10;49.00
25914;DHT22;13718;50.922;5.346;2023-05-28T07:14:22;36.30;48.50
25914;DHT22;13718;50.922;5.346;2023-05-28T07:16:47;36.40;48.30
25914;DHT22;13718;50.922;5.346;2023-05-28T07:19:13;36.50;47.90
25914;DHT22;13718;50.922;5.346;2023-05-28T07:21:38;36.60;47.40
25914;DHT22;13718;50.922;5.346;2023-05-28T07:24:04;36.80;47.30
25914;DHT22;13718;50.922;5.346;2023-05-28T07:26:31;36.70;47.00
25914;DHT22;13718;50.922;5.346;2023-05-28T07:28:57;36.70;47.00
25914;DHT22;13718;50.922;5.346;2023-05-28T07:31:22;36.60;47.00
25914;DHT22;13718;50.922;5.346;2023-05-28T07:33:49;36.80;46.80
25914;DHT22;13718;50.922;5.346;2023-05-28T07:36:15;36.60;46.10
25914;DHT22;13718;50.922;5.346;2023-05-28T07:38:44;36.50;46.70
25914;DHT22;13718;50.922;5.346;2023-05-28T07:41:10;36.70;46.60
25914;DHT22;13718;50.922;5.346;2023-05-28T07:43:35;36.90;46.00
25914;DHT22;13718;50.922;5.346;2023-05-28T07:46:01;37.00;46.20
25914;DHT22;13718;50.922;5.346;2023-05-28T07:48:27;37.10;45.30
25914;DHT22;13718;50.922;5.346;2023-05-28T07:50:52;37.10;45.40
25914;DHT22;13718;50.922;5.346;2023-05-28T07:53:18;37.00;44.80
25914;DHT22;13718;50.922;5.346;2023-05-28T07:55:44;37.20;45.10
25914;DHT22;13718;50.922;5.346;2023-05-28T07:58:11;37.50;45.10
25914;DHT22;13718;50.922;5.346;2023-05-28T08:00:38;37.70;44.20
25914;DHT22;13718;50.922;5.346;2023-05-28T08:03:04;37.70;44.30
25914;DHT22;13718;50.922;5.346;2023-05-28T08:05:30;37.90;44.20
25914;DHT22;13718;50.922;5.346;2023-05-28T08:07:56;37.90;43.90
25914;DHT22;13718;50.922;5.346;2023-05-28T08:10:21;37.50;43.10
25914;DHT22;13718;50.922;5.346;2023-05-28T08:12:47;37.00;44.00
25914;DHT22;13718;50.922;5.346;2023-05-28T08:15:13;37.00;44.80
25914;DHT22;13718;50.922;5.346;2023-05-28T08:17:39;37.00;44.60
25914;DHT22;13718;50.922;5.346;2023-05-28T08:20:05;37.30;44.40
25914;DHT22;13718;50.922;5.346;2023-05-28T08:22:31;37.60;43.70
25914;DHT22;13718;50.922;5.346;2023-05-28T08:24:57;37.40;43.00
25914;DHT22;13718;50.922;5.346;2023-05-28T08:27:22;37.30;43.20
25914;DHT22;13718;50.922;5.346;2023-05-28T08:29:48;37.40;44.10
25914;DHT22;13718;50.922;5.346;2023-05-28T08:32:14;37.30;43.30
25914;DHT22;13718;50.922;5.346;2023-05-28T08:34:39;37.10;43.50
25914;DHT22;13718;50.922;5.346;2023-05-28T08:37:05;37.10;43.90
25914;DHT22;13718;50.922;5.346;2023-05-28T08:39:32;37.20;42.50
25914;DHT22;13718;50.922;5.346;2023-05-28T08:41:58;36.40;42.00
25914;DHT22;13718;50.922;5.346;2023-05-28T08:44:23;35.90;43.50
25914;DHT22;13718;50.922;5.346;2023-05-28T08:46:49;35.70;43.80
25914;DHT22;13718;50.922;5.346;2023-05-28T08:49:17;35.50;42.70
25914;DHT22;13718;50.922;5.346;2023-05-28T08:51:44;34.90;43.70
25914;DHT22;13718;50.922;5.346;2023-05-28T08:54:14;34.20;45.10
25914;DHT22;13718;50.922;5.346;2023-05-28T08:56:40;34.60;45.90
25914;DHT22;13718;50.922;5.346;2023-05-28T08:59:07;35.30;45.60
25914;DHT22;13718;50.922;5.346;2023-05-28T09:01:36;36.00;44.80
25914;DHT22;13718;50.922;5.346;2023-05-28T09:04:03;36.60;44.30
25914;DHT22;13718;50.922;5.346;2023-05-28T09:06:30;37.30;43.30
25914;DHT22;13718;50.922;5.346;2023-05-28T09:08:57;37.40;42.50
25914;DHT22;13718;50.922;5.346;2023-05-28T09:11:23;37.60;42.40
25914;DHT22;13718;50.922;5.346;2023-05-28T09:13:49;36.30;42.30
25914;DHT22;13718;50.922;5.346;2023-05-28T09:16:22;35.30;43.30
25914;DHT22;13718;50.922;5.346;2023-05-28T09:18:52;34.20;45.10
25914;DHT22;13718;50.922;5.346;2023-05-28T09:21:26;34.20;45.90
25914;DHT22;13718;50.922;5.346;2023-05-28T09:23:52;34.10;45.60
25914;DHT22;13718;50.922;5.346;2023-05-28T09:26:18;33.40;44.70
25914;DHT22;13718;50.922;5.346;2023-05-28T09:28:46;32.80;45.80
25914;DHT22;13718;50.922;5.346;2023-05-28T09:31:14;32.90;45.90
25914;DHT22;13718;50.922;5.346;2023-05-28T09:33:45;33.50;45.40
25914;DHT22;13718;50.922;5.346;2023-05-28T09:36:11;32.90;45.90
25914;DHT22;13718;50.922;5.346;2023-05-28T09:38:40;32.00;46.80
25914;DHT22;13718;50.922;5.346;2023-05-28T09:41:19;31.20;49.00
25914;DHT22;13718;50.922;5.346;2023-05-28T09:43:46;30.10;50.10
25914;DHT22;13718;50.922;5.346;2023-05-28T09:46:12;29.10;51.40
25914;DHT22;13718;50.922;5.346;2023-05-28T09:48:37;28.30;52.90
25914;DHT22;13718;50.922;5.346;2023-05-28T09:51:04;27.80;53.40
25914;DHT22;13718;50.922;5.346;2023-05-28T09:53:37;27.20;55.20
25914;DHT22;13718;50.922;5.346;2023-05-28T09:56:05;26.90;55.60
25914;DHT22;13718;50.922;5.346;2023-05-28T09:58:33;26.70;54.60
25914;DHT22;13718;50.922;5.346;2023-05-28T10:01:07;26.70;54.80
25914;DHT22;13718;50.922;5.346;2023-05-28T10:03:37;26.70;55.50
25914;DHT22;13718;50.922;5.346;2023-05-28T10:06:06;26.60;55.90
25914;DHT22;13718;50.922;5.346;2023-05-28T10:08:37;26.40;56.10
25914;DHT22;13718;50.922;5.346;2023-05-28T10:11:08;26.50;55.80
25914;DHT22;13718;50.922;5.346;2023-05-28T10:13:35;26.40;55.70
25914;DHT22;13718;50.922;5.346;2023-05-28T10:16:01;26.30;55.10
25914;DHT22;13718;50.922;5.346;2023-05-28T10:18:27;26.30;55.30
25914;DHT22;13718;50.922;5.346;2023-05-28T10:20:53;26.20;55.90
25914;DHT22;13718;50.922;5.346;2023-05-28T10:23:21;26.20;56.40
25914;DHT22;13718;50.922;5.346;2023-05-28T10:25:47;26.00;54.10
25914;DHT22;13718;50.922;5.346;2023-05-28T10:28:14;25.90;55.90
25914;DHT22;13718;50.922;5.346;2023-05-28T10:30:40;25.90;56.50
25914;DHT22;13718;50.922;5.346;2023-05-28T10:33:15;25.70;57.00
25914;DHT22;13718;50.922;5.346;2023-05-28T10:35:52;25.90;56.00
25914;DHT22;13718;50.922;5.346;2023-05-28T10:38:18;26.00;56.00
25914;DHT22;13718;50.922;5.346;2023-05-28T10:40:44;26.10;53.70
25914;DHT22;13718;50.922;5.346;2023-05-28T10:49:15;25.90;55.00
25914;DHT22;13718;50.922;5.346;2023-05-28T10:51:55;26.00;54.20
25914;DHT22;13718;50.922;5.346;2023-05-28T10:54:23;26.10;54.50
25914;DHT22;13718;50.922;5.346;2023-05-28T10:57:19;26.10;53.80
25914;DHT22;13718;50.922;5.346;2023-05-28T11:02:28;26.20;54.10
25914;DHT22;13718;50.922;5.346;2023-05-28T11:04:55;26.10;54.80
25914;DHT22;13718;50.922;5.346;2023-05-28T11:07:22;26.10;54.80
25914;DHT22;13718;50.922;5.346;2023-05-28T11:09:55;26.10;54.30
25914;DHT22;13718;50.922;5.346;2023-05-28T11:12:21;26.10;52.70
25914;DHT22;13718;50.922;5.346;2023-05-28T11:14:47;25.90;53.60
25914;DHT22;13718;50.922;5.346;2023-05-28T11:17:13;25.80;54.80
25914;DHT22;13718;50.922;5.346;2023-05-28T11:19:44;26.00;54.30
25914;DHT22;13718;50.922;5.346;2023-05-28T11:22:11;25.90;54.90
25914;DHT22;13718;50.922;5.346;2023-05-28T11:24:57;25.80;55.00
25914;DHT22;13718;50.922;5.346;2023-05-28T11:27:26;26.00;54.70
25914;DHT22;13718;50.922;5.346;2023-05-28T11:29:57;26.00;55.10
25914;DHT22;13718;50.922;5.346;2023-05-28T11:32:24;26.00;55.00
25914;DHT22;13718;50.922;5.346;2023-05-28T11:34:51;25.90;55.70
25914;DHT22;13718;50.922;5.346;2023-05-28T11:37:25;25.60;56.40
25914;DHT22;13718;50.922;5.346;2023-05-28T11:39:53;25.70;56.50
25914;DHT22;13718;50.922;5.346;2023-05-28T11:42:20;25.80;56.20
25914;DHT22;13718;50.922;5.346;2023-05-28T11:44:47;26.00;55.70
25914;DHT22;13718;50.922;5.346;2023-05-28T11:47:13;26.00;55.60
25914;DHT22;13718;50.922;5.346;2023-05-28T11:49:42;26.10;56.30
25914;DHT22;13718;50.922;5.346;2023-05-28T11:52:14;26.00;55.60
25914;DHT22;13718;50.922;5.346;2023-05-28T11:54:41;26.00;56.70
25914;DHT22;13718;50.922;5.346;2023-05-28T11:57:07;25.90;56.90
25914;DHT22;13718;50.922;5.346;2023-05-28T11:59:34;26.00;56.00
25914;DHT22;13718;50.922;5.346;2023-05-28T12:02:16;26.20;55.80
25914;DHT22;13718;50.922;5.346;2023-05-28T12:05:00;26.30;55.80
25914;DHT22;13718;50.922;5.346;2023-05-28T12:07:34;26.30;55.90
25914;DHT22;13718;50.922;5.346;2023-05-28T12:12:32;26.30;56.00
25914;DHT22;13718;50.922;5.346;2023-05-28T12:14:58;26.60;56.20
25914;DHT22;13718;50.922;5.346;2023-05-28T12:17:24;26.50;55.00
25914;DHT22;13718;50.922;5.346;2023-05-28T12:19:50;26.20;55.20
25914;DHT22;13718;50.922;5.346;2023-05-28T12:22:16;26.40;54.90
25914;DHT22;13718;50.922;5.346;2023-05-28T12:24:49;26.50;54.70
25914;DHT22;13718;50.922;5.346;2023-05-28T12:27:15;26.40;52.60
25914;DHT22;13718;50.922;5.346;2023-05-28T12:29:42;26.30;53.30
25914;DHT22;13718;50.922;5.346;2023-05-28T12:32:08;26.30;54.40
25914;DHT22;13718;50.922;5.346;2023-05-28T12:34:33;26.30;53.70
25914;DHT22;13718;50.922;5.346;2023-05-28T12:36:59;26.40;53.30
25914;DHT22;13718;50.922;5.346;2023-05-28T12:39:25;26.40;53.20
25914;DHT22;13718;50.922;5.346;2023-05-28T12:41:50;26.40;54.30
25914;DHT22;13718;50.922;5.346;2023-05-28T12:44:16;26.60;53.20
25914;DHT22;13718;50.922;5.346;2023-05-28T12:46:41;26.80;53.30
25914;DHT22;13718;50.922;5.346;2023-05-28T12:49:07;26.70;54.50
25914;DHT22;13718;50.922;5.346;2023-05-28T12:51:33;26.90;53.60
25914;DHT22;13718;50.922;5.346;2023-05-28T12:53:58;27.00;54.20
25914;DHT22;13718;50.922;5.346;2023-05-28T12:56:27;27.10;54.20
25914;DHT22;13718;50.922;5.346;2023-05-28T12:58:53;26.90;54.30
25914;DHT22;13718;50.922;5.346;2023-05-28T13:01:18;26.40;55.20
25914;DHT22;13718;50.922;5.346;2023-05-28T13:03:44;26.30;55.20
25914;DHT22;13718;50.922;5.346;2023-05-28T13:06:10;26.30;55.90
25914;DHT22;13718;50.922;5.346;2023-05-28T13:08:37;26.10;55.90
25914;DHT22;13718;50.922;5.346;2023-05-28T13:11:02;26.10;56.50
25914;DHT22;13718;50.922;5.346;2023-05-28T13:13:28;26.40;55.40
25914;DHT22;13718;50.922;5.346;2023-05-28T13:15:54;26.50;56.00
25914;DHT22;13718;50.922;5.346;2023-05-28T13:18:20;26.20;56.50
25914;DHT22;13718;50.922;5.346;2023-05-28T13:20:45;26.30;56.80
25914;DHT22;13718;50.922;5.346;2023-05-28T13:23:11;26.50;55.50
25914;DHT22;13718;50.922;5.346;2023-05-28T13:25:37;26.40;55.10
25914;DHT22;13718;50.922;5.346;2023-05-28T13:28:03;26.40;55.10
25914;DHT22;13718;50.922;5.346;2023-05-28T13:30:29;26.40;55.20
25914;DHT22;13718;50.922;5.346;2023-05-28T13:32:55;26.30;55.20
25914;DHT22;13718;50.922;5.346;2023-05-28T13:35:20;26.20;55.40
25914;DHT22;13718;50.922;5.346;2023-05-28T13:37:46;26.00;54.80
25914;DHT22;13718;50.922;5.346;2023-05-28T13:40:12;26.10;55.90
25914;DHT22;13718;50.922;5.346;2023-05-28T13:42:42;26.10;53.60
25914;DHT22;13718;50.922;5.346;2023-05-28T13:45:08;26.10;53.90
25914;DHT22;13718;50.922;5.346;2023-05-28T13:47:36;26.20;54.40
25914;DHT22;13718;50.922;5.346;2023-05-28T13:50:02;26.20;54.90
25914;DHT22;13718;50.922;5.346;2023-05-28T13:52:29;26.40;56.00
25914;DHT22;13718;50.922;5.346;2023-05-28T13:54:54;26.40;54.60
25914;DHT22;13718;50.922;5.346;2023-05-28T13:57:20;26.40;55.10
25914;DHT22;13718;50.922;5.346;2023-05-28T13:59:46;26.40;56.20
25914;DHT22;13718;50.922;5.346;2023-05-28T14:02:12;26.60;55.00
25914;DHT22;13718;50.922;5.346;2023-05-28T14:04:38;26.40;54.40
25914;DHT22;13718;50.922;5.346;2023-05-28T14:07:04;26.40;55.00
25914;DHT22;13718;50.922;5.346;2023-05-28T14:09:30;26.00;54.30
25914;DHT22;13718;50.922;5.346;2023-05-28T14:11:56;26.10;55.40
25914;DHT22;13718;50.922;5.346;2023-05-28T14:14:22;26.20;54.70
25914;DHT22;13718;50.922;5.346;2023-05-28T14:16:48;26.30;54.10
25914;DHT22;13718;50.922;5.346;2023-05-28T14:19:13;26.40;54.20
25914;DHT22;13718;50.922;5.346;2023-05-28T14:21:39;26.70;51.30
25914;DHT22;13718;50.922;5.346;2023-05-28T14:24:07;26.70;50.70
25914;DHT22;13718;50.922;5.346;2023-05-28T14:26:33;26.40;51.60
25914;DHT22;13718;50.922;5.346;2023-05-28T14:28:58;26.30;52.60
25914;DHT22;13718;50.922;5.346;2023-05-28T14:31:24;26.40;52.80
25914;DHT22;13718;50.922;5.346;2023-05-28T14:33:49;26.60;53.10
25914;DHT22;13718;50.922;5.346;2023-05-28T14:36:15;26.80;53.40
25914;DHT22;13718;50.922;5.346;2023-05-28T14:38:41;27.20;50.90
25914;DHT22;13718;50.922;5.346;2023-05-28T14:41:06;27.00;50.70
25914;DHT22;13718;50.922;5.346;2023-05-28T14:43:33;27.00;50.70
25914;DHT22;13718;50.922;5.346;2023-05-28T14:45:58;27.10;49.90
25914;DHT22;13718;50.922;5.346;2023-05-28T14:48:24;27.10;50.30
25914;DHT22;13718;50.922;5.346;2023-05-28T14:50:50;27.20;50.80
25914;DHT22;13718;50.922;5.346;2023-05-28T14:53:15;27.00;51.20
25914;DHT22;13718;50.922;5.346;2023-05-28T14:55:41;26.70;52.20
25914;DHT22;13718;50.922;5.346;2023-05-28T14:58:07;26.70;52.80
25914;DHT22;13718;50.922;5.346;2023-05-28T15:00:33;26.70;54.00
25914;DHT22;13718;50.922;5.346;2023-05-28T15:02:58;26.60;54.40
25914;DHT22;13718;50.922;5.346;2023-05-28T15:05:24;26.30;54.60
25914;DHT22;13718;50.922;5.346;2023-05-28T15:07:52;26.10;55.20
25914;DHT22;13718;50.922;5.346;2023-05-28T15:10:17;26.00;55.50
25914;DHT22;13718;50.922;5.346;2023-05-28T15:12:43;25.90;55.80
25914;DHT22;13718;50.922;5.346;2023-05-28T15:15:09;26.10;55.40
25914;DHT22;13718;50.922;5.346;2023-05-28T15:17:34;26.10;54.90
25914;DHT22;13718;50.922;5.346;2023-05-28T15:20:00;26.20;54.70
25914;DHT22;13718;50.922;5.346;2023-05-28T15:22:25;26.00;54.10
25914;DHT22;13718;50.922;5.346;2023-05-28T15:24:51;26.00;55.00
25914;DHT22;13718;50.922;5.346;2023-05-28T15:27:17;25.80;54.70
25914;DHT22;13718;50.922;5.346;2023-05-28T15:29:43;25.60;55.10
25914;DHT22;13718;50.922;5.346;2023-05-28T15:32:10;25.50;56.20
25914;DHT22;13718;50.922;5.346;2023-05-28T15:34:37;25.40;55.60
25914;DHT22;13718;50.922;5.346;2023-05-28T15:37:03;25.50;55.90